Time;durP1;ratioP1;P1;durP2;ratioP2;P2;SDS_P1;SDS_P2;PMS_P1;PMS_P2;Temp;Humidity;BMP_temperature;BMP_pressure;BME280_temperature;BME280_humidity;BME280_pressure;Samples;Min_cycle;Max_cycle;Signal;HPM_P1;HPM_P2
2021/12/17 00:00:19;;;;;;;34.80;9.70;;;;;;;3.61;82.92;101199.53;102940;1319;138695;-71
2021/12/17 00:03:17;;;;;;;26.90;9.80;;;;;;;3.57;83.02;101205.81;103156;1318;97880;-72
2021/12/17 00:06:06;;;;;;;28.50;9.30;;;;;;;3.51;82.87;101204.20;102984;1317;138988;-71
2021/12/17 00:08:39;;;;;;;25.40;9.40;;;;;;;3.47;83.21;101198.66;103115;1319;112481;-72
2021/12/17 00:11:12;;;;;;;26.20;8.90;;;;;;;3.45;83.11;101192.80;102951;1318;139206;-71
2021/12/17 00:13:46;;;;;;;26.10;8.80;;;;;;;3.44;83.20;101191.24;103024;1317;109203;-72
2021/12/17 00:16:22;;;;;;;25.40;8.90;;;;;;;3.45;83.32;101190.05;102892;1317;97938;-72
2021/12/17 00:19:11;;;;;;;27.90;9.30;;;;;;;3.43;83.34;101186.25;103323;1319;138558;-72
2021/12/17 00:50:21;;;;;;;28.30;9.10;;;;;;;3.52;83.56;101215.05;102744;1334;110677;-73
2021/12/17 00:52:53;;;;;;;29.50;8.60;;;;;;;3.51;83.51;101209.88;102670;1333;138059;-72
2021/12/17 00:55:25;;;;;;;28.40;8.60;;;;;;;3.51;83.46;101213.49;102559;1335;109207;-71
2021/12/17 00:57:57;;;;;;;27.20;8.50;;;;;;;3.50;83.42;101205.58;102110;1333;97962;-72
2021/12/17 01:00:29;;;;;;;24.10;7.30;;;;;;;3.52;83.53;101201.98;102286;1333;140186;-73
2021/12/17 01:03:02;;;;;;;22.90;7.50;;;;;;;3.55;83.36;101201.84;101487;1333;112183;-72
2021/12/17 01:05:35;;;;;;;21.20;6.50;;;;;;;3.58;83.46;101193.81;101678;1338;139090;-72
2021/12/17 01:08:08;;;;;;;24.20;7.60;;;;;;;3.62;83.30;101191.62;101442;1333;109103;-72
2021/12/17 01:10:44;;;;;;;27.80;6.90;;;;;;;3.65;83.40;101197.16;101531;1330;98087;-73
2021/12/17 01:13:44;;;;;;;25.40;7.10;;;;;;;3.68;83.21;101197.35;102794;1326;96309;-72
2021/12/17 01:16:51;;;;;;;;;;;;;;;3.71;83.44;101199.95;102940;1325;112889;-72
2021/12/17 01:20:10;;;;;;;26.10;7.00;;;;;;;3.73;83.23;101197.58;103689;1323;124587;-73
2021/12/17 01:23:03;;;;;;;20.20;6.50;;;;;;;3.72;83.11;101196.36;103755;1324;108931;-73
2021/12/17 01:35:30;;;;;;;24.50;6.90;;;;;;;3.73;83.20;101193.10;103199;1321;108794;-72
2021/12/17 01:44:04;;;;;;;19.40;6.30;;;;;;;3.79;82.74;101203.33;103057;1319;138605;-72
2021/12/17 01:46:39;;;;;;;21.60;5.80;;;;;;;3.77;82.62;101203.98;103557;1320;111257;-72
2021/12/17 01:49:26;;;;;;;24.20;6.80;;;;;;;3.77;82.79;101210.85;103073;1323;140138;-72
2021/12/17 02:00:37;;;;;;;25.00;6.70;;;;;;;3.82;82.85;101198.72;104095;1322;138501;-72
2021/12/17 02:03:12;;;;;;;21.90;5.70;;;;;;;3.85;82.62;101196.50;103352;1319;107955;-72
2021/12/17 02:05:45;;;;;;;24.00;6.30;;;;;;;3.82;82.53;101195.10;104343;1319;108932;-73
2021/12/17 02:08:17;;;;;;;24.50;6.70;;;;;;;3.81;82.50;101187.36;104284;1317;139776;-72
2021/12/17 02:19:46;;;;;;;26.50;6.90;;;;;;;3.81;82.55;101177.02;103070;1323;138569;-72
2021/12/17 02:31:23;;;;;;;19.30;6.20;;;;;;;3.87;82.38;101162.46;102609;1328;138047;-72
2021/12/17 02:34:00;;;;;;;25.40;6.70;;;;;;;3.86;82.29;101158.15;102065;1327;108734;-72
2021/12/17 02:36:35;;;;;;;24.30;5.40;;;;;;;3.82;82.30;101154.50;101862;1326;138974;-72
2021/12/17 02:39:30;;;;;;;17.80;5.90;;;;;;;3.78;82.26;101148.45;102047;1327;97882;-71
2021/12/17 02:47:41;;;;;;;24.20;5.90;;;;;;;3.77;82.50;101146.20;103296;1327;108996;-73
2021/12/17 02:50:14;;;;;;;23.90;5.80;;;;;;;3.77;82.30;101147.58;102506;1325;139667;-72
2021/12/17 02:52:46;;;;;;;24.50;6.70;;;;;;;3.78;82.37;101150.69;103158;1323;97768;-72
2021/12/17 02:55:19;;;;;;;22.60;5.90;;;;;;;3.79;82.46;101153.45;102851;1324;138007;-71
2021/12/17 02:57:51;;;;;;;22.80;6.20;;;;;;;3.80;82.55;101151.40;102724;1325;107905;-72
2021/12/17 03:00:23;;;;;;;24.80;6.30;;;;;;;3.78;82.53;101153.79;103356;1319;139155;-72
2021/12/17 03:03:14;;;;;;;21.30;5.70;;;;;;;3.78;82.53;101157.73;102964;1317;97838;-72
2021/12/17 03:05:46;;;;;;;19.70;5.40;;;;;;;3.80;82.61;101161.02;102949;1318;98421;-72
2021/12/17 03:08:19;;;;;;;25.00;6.40;;;;;;;3.81;82.46;101157.42;103007;1318;138370;-72
2021/12/17 03:10:53;;;;;;;24.20;5.60;;;;;;;3.83;82.46;101152.10;103629;1319;108744;-73
2021/12/17 03:13:26;;;;;;;20.50;5.70;;;;;;;3.82;82.47;101156.91;103554;1318;138035;-71
2021/12/17 03:16:02;;;;;;;27.10;6.50;;;;;;;3.79;82.32;101155.68;103123;1317;97900;-71
2021/12/17 03:24:18;;;;;;;24.30;5.80;;;;;;;3.72;82.35;101148.03;103794;1319;140562;-73
2021/12/17 03:26:51;;;;;;;21.20;5.70;;;;;;;3.71;82.49;101144.92;103567;1318;109212;-73
2021/12/17 03:29:24;;;;;;;24.20;5.70;;;;;;;3.71;82.50;101138.90;104305;1317;96346;-72
2021/12/17 03:32:00;;;;;;;24.00;6.30;;;;;;;3.73;82.35;101135.81;104083;1317;139039;-72
2021/12/17 03:34:32;;;;;;;21.70;5.70;;;;;;;3.74;82.34;101134.63;104265;1318;112726;-73
2021/12/17 03:37:05;;;;;;;21.90;5.60;;;;;;;3.75;82.34;101127.76;104190;1319;138795;-73
2021/12/17 03:39:46;;;;;;;21.70;5.60;;;;;;;3.77;82.20;101124.85;104346;1318;110161;-74
2021/12/17 03:42:17;;;;;;;23.10;6.40;;;;;;;3.77;82.19;101125.02;103952;1319;138572;-73
2021/12/17 03:44:49;;;;;;;23.60;5.80;;;;;;;3.77;82.21;101127.26;103565;1318;97835;-73
2021/12/17 03:47:45;;;;;;;20.90;4.90;;;;;;;3.76;82.14;101134.98;103898;1318;111645;-73
2021/12/17 03:50:21;;;;;;;22.20;5.80;;;;;;;3.77;82.17;101132.79;103145;1323;138867;-72
2021/12/17 03:52:53;;;;;;;20.30;5.10;;;;;;;3.78;82.19;101126.95;102996;1318;108921;-73
2021/12/17 03:55:28;;;;;;;20.60;5.30;;;;;;;3.83;82.15;101125.10;104276;1319;138313;-72
2021/12/17 03:58:01;;;;;;;19.90;5.60;;;;;;;3.86;82.06;101121.52;103715;1318;96692;-71
2021/12/17 04:00:35;;;;;;;19.70;5.50;;;;;;;3.88;82.05;101121.86;104324;1318;138214;-72
2021/12/17 04:03:07;;;;;;;23.50;5.40;;;;;;;3.88;81.97;101122.04;103075;1318;108929;-71
2021/12/17 04:05:57;;;;;;;29.10;5.90;;;;;;;3.85;81.66;101121.66;102852;1317;138514;-70
2021/12/17 04:08:49;;;;;;;23.30;5.20;;;;;;;3.81;81.71;101122.33;103010;1319;98571;-71
2021/12/17 04:11:30;;;;;;;18.70;5.00;;;;;;;3.78;81.74;101115.43;103108;1318;97789;-71
2021/12/17 04:14:06;;;;;;;24.30;5.90;;;;;;;3.77;81.84;101115.05;102985;1318;138482;-70
2021/12/17 04:16:48;;;;;;;26.10;6.20;;;;;;;3.77;81.90;101108.00;104421;1318;108932;-71
2021/12/17 04:19:20;;;;;;;23.10;6.50;;;;;;;3.75;81.80;101107.12;102859;1315;138782;-73
2021/12/17 04:21:53;;;;;;;23.90;5.70;;;;;;;3.75;81.85;101101.95;103080;1319;97954;-73
2021/12/17 04:24:25;;;;;;;21.50;6.10;;;;;;;3.76;81.73;101109.70;102988;1318;138391;-73
2021/12/17 04:26:57;;;;;;;25.90;5.80;;;;;;;3.77;81.96;101114.36;102947;1318;112775;-72
2021/12/17 04:29:29;;;;;;;28.80;5.80;;;;;;;3.74;81.55;101111.06;102818;1318;108800;-70
2021/12/17 04:32:02;;;;;;;23.90;5.60;;;;;;;3.70;81.95;101116.53;102911;1318;138169;-72
2021/12/17 04:34:37;;;;;;;19.30;4.60;;;;;;;3.66;81.75;101115.13;103086;1319;97851;-73
2021/12/17 04:37:10;;;;;;;15.00;5.10;;;;;;;3.63;81.79;101113.05;102805;1319;138972;-70
2021/12/17 04:39:55;;;;;;;21.20;5.10;;;;;;;3.63;81.93;101112.70;103092;1317;112269;-73
2021/12/17 04:42:36;;;;;;;17.80;5.90;;;;;;;3.60;81.77;101111.64;102988;1318;139507;-71
2021/12/17 04:45:10;;;;;;;24.80;5.80;;;;;;;3.60;81.77;101113.19;103115;1319;108256;-71
2021/12/17 04:59:20;;;;;;;18.80;5.30;;;;;;;3.47;81.97;101127.31;104398;1318;108883;-72
2021/12/17 05:01:52;;;;;;;16.80;4.80;;;;;;;3.45;82.08;101127.98;104006;1318;138925;-71
2021/12/17 05:04:26;;;;;;;19.40;5.30;;;;;;;3.43;82.09;101125.56;103109;1318;98379;-70
2021/12/17 05:06:59;;;;;;;22.40;5.50;;;;;;;3.45;82.09;101134.17;102936;1318;138062;-70
2021/12/17 05:09:38;;;;;;;23.40;5.30;;;;;;;3.46;82.23;101135.90;103009;1318;107952;-73
2021/12/17 05:20:46;;;;;;;19.20;5.60;;;;;;;3.39;82.21;101154.88;102896;1318;137881;-71
2021/12/17 05:23:23;;;;;;;20.60;4.40;;;;;;;3.36;82.03;101154.68;103306;1317;109033;-71
2021/12/17 05:25:55;;;;;;;17.30;5.00;;;;;;;3.32;82.01;101160.31;102945;1317;139335;-73
2021/12/17 05:28:32;;;;;;;22.20;5.50;;;;;;;3.34;82.26;101167.38;103051;1319;98289;-72
2021/12/17 05:31:05;;;;;;;25.70;5.70;;;;;;;3.36;82.36;101163.63;102779;1318;138279;-72
2021/12/17 05:33:41;;;;;;;20.90;5.20;;;;;;;3.37;82.26;101159.67;102890;1320;112689;-71
2021/12/17 05:36:13;;;;;;;24.70;5.10;;;;;;;3.36;82.25;101164.14;103076;1315;108175;-72
2021/12/17 05:38:55;;;;;;;15.70;4.70;;;;;;;3.34;82.07;101162.23;102849;1318;138375;-70
2021/12/17 05:41:28;;;;;;;19.20;5.70;;;;;;;3.29;81.97;101158.56;103581;1319;96148;-71
2021/12/17 05:44:14;;;;;;;21.30;5.00;;;;;;;3.26;81.98;101157.51;103105;1322;138488;-71
2021/12/17 05:46:50;;;;;;;21.40;5.10;;;;;;;3.25;82.04;101153.55;103990;1318;112651;-72
2021/12/17 05:49:25;;;;;;;18.90;4.90;;;;;;;3.25;82.13;101147.52;104265;1319;140646;-72
2021/12/17 05:51:58;;;;;;;14.70;4.80;;;;;;;3.26;81.95;101143.92;104207;1317;108797;-72
2021/12/17 05:54:30;;;;;;;27.30;6.10;;;;;;;3.31;82.25;101136.41;104140;1319;96212;-72
2021/12/17 05:57:03;;;;;;;19.40;5.00;;;;;;;3.33;81.83;101127.83;103108;1325;138126;-72
2021/12/17 05:59:37;;;;;;;23.80;5.30;;;;;;;3.33;81.71;101125.26;103497;1318;111139;-72
2021/12/17 06:02:11;;;;;;;22.70;5.30;;;;;;;3.34;81.72;101120.63;104290;1319;138376;-72
2021/12/17 06:04:49;;;;;;;24.20;5.60;;;;;;;3.31;81.74;101127.30;104363;1318;106959;-71
2021/12/17 06:07:28;;;;;;;16.70;4.80;;;;;;;3.30;81.69;101137.10;103128;1322;138694;-71
2021/12/17 06:10:04;;;;;;;25.50;5.00;;;;;;;3.29;81.71;101145.16;102968;1318;97887;-73
2021/12/17 06:12:43;;;;;;;17.20;5.50;;;;;;;3.28;81.71;101152.38;104230;1318;139268;-70
2021/12/17 06:15:18;;;;;;;15.70;4.60;;;;;;;3.28;81.72;101150.82;104237;1318;109077;-72
2021/12/17 06:17:52;;;;;;;22.40;5.70;;;;;;;3.28;81.72;101152.38;104005;1318;109600;-70
2021/12/17 06:20:25;;;;;;;21.90;5.20;;;;;;;3.29;81.65;101156.33;102847;1318;137912;-72
2021/12/17 06:22:59;;;;;;;20.60;5.70;;;;;;;3.31;81.93;101159.11;102980;1318;97879;-72
2021/12/17 06:25:31;;;;;;;20.60;5.90;;;;;;;3.30;81.71;101162.88;102939;1317;137756;-71
2021/12/17 06:28:04;;;;;;;20.00;4.90;;;;;;;3.28;81.72;101160.44;102979;1318;107559;-72
2021/12/17 06:30:36;;;;;;;27.00;6.70;;;;;;;3.23;81.63;101165.37;102749;1318;109172;-72
2021/12/17 06:33:09;;;;;;;29.30;12.50;;;;;;;3.22;81.68;101165.51;103952;1318;140412;-72
2021/12/17 06:35:41;;;;;;;17.60;5.40;;;;;;;3.25;81.95;101164.02;104191;1315;243910;-72
2021/12/17 06:38:14;;;;;;;19.80;5.20;;;;;;;3.28;81.89;101160.62;103085;1318;139592;-72
2021/12/17 06:40:48;;;;;;;16.70;5.30;;;;;;;3.30;81.87;101160.98;103671;1313;109027;-71
2021/12/17 06:43:23;;;;;;;21.70;5.90;;;;;;;3.31;82.00;101161.34;103119;1322;138819;-73
2021/12/17 06:46:02;;;;;;;21.50;5.80;;;;;;;3.32;81.86;101151.20;103068;1318;97970;-71
2021/12/17 06:48:35;;;;;;;19.90;5.60;;;;;;;3.30;81.67;101147.58;103788;1322;97769;-73
2021/12/17 07:00:36;;;;;;;19.80;5.40;;;;;;;3.16;81.97;101135.88;104377;1318;96095;-72
2021/12/17 07:06:56;;;;;;;;;;;;;;;3.19;81.64;101142.96;102320;1324;112537;-71
2021/12/17 07:21:23;;;;;;;21.20;6.90;;;;;;;3.15;82.16;101157.17;102810;1317;140180;-71
2021/12/17 07:33:06;;;;;;;20.70;5.70;;;;;;;3.25;81.78;101177.09;102550;1321;137988;-71
2021/12/17 07:35:48;;;;;;;20.20;5.70;;;;;;;3.21;81.74;101180.45;102512;1322;111673;-71
2021/12/17 07:38:42;;;;;;;18.80;6.50;;;;;;;3.20;81.95;101185.94;102407;1324;138051;-71
2021/12/17 07:41:35;;;;;;;17.50;6.20;;;;;;;3.15;81.75;101184.52;102399;1321;107159;-72
2021/12/17 07:44:32;;;;;;;19.40;6.00;;;;;;;3.12;81.93;101183.27;102463;1324;138930;-71
2021/12/17 07:47:21;;;;;;;17.80;5.40;;;;;;;3.12;82.02;101187.58;103725;1321;96194;-71
2021/12/17 07:50:13;;;;;;;23.90;5.70;;;;;;;3.12;81.83;101188.93;102610;1321;138802;-72
2021/12/17 07:53:06;;;;;;;18.40;5.80;;;;;;;3.14;82.16;101191.88;102913;1324;108966;-73
2021/12/17 07:55:46;;;;;;;19.70;5.90;;;;;;;3.15;82.06;101194.98;102598;1322;138635;-71
2021/12/17 07:58:24;;;;;;;24.20;6.50;;;;;;;3.17;82.10;101207.89;102611;1321;98419;-72
2021/12/17 08:00:57;;;;;;;21.80;6.80;;;;;;;3.18;82.00;101214.61;102734;1323;97975;-73
2021/12/17 08:03:29;;;;;;;21.60;7.10;;;;;;;3.18;82.08;101217.71;102442;1325;137886;-71
2021/12/17 08:06:06;;;;;;;20.30;7.50;;;;;;;3.16;81.96;101220.60;102503;1324;109838;-72
2021/12/17 08:08:47;;;;;;;21.60;7.00;;;;;;;3.15;81.77;101223.85;103672;1324;139125;-72
2021/12/17 08:11:26;;;;;;;19.20;5.60;;;;;;;3.15;82.02;101225.39;103779;1321;96381;-72
2021/12/17 08:14:00;;;;;;;17.80;6.20;;;;;;;3.16;82.03;101225.58;104030;1317;139285;-72
2021/12/17 08:16:39;;;;;;;19.90;6.40;;;;;;;3.19;81.96;101229.23;103988;1319;112431;-72
2021/12/17 08:24:57;;;;;;;23.50;6.90;;;;;;;3.23;81.83;101244.91;103779;1319;96115;-70
2021/12/17 08:27:44;;;;;;;25.70;7.60;;;;;;;3.21;81.70;101239.75;104216;1318;139406;-70
2021/12/17 08:30:24;;;;;;;25.80;6.50;;;;;;;3.19;81.80;101232.84;103962;1318;112672;-70
2021/12/17 08:32:58;;;;;;;27.10;7.00;;;;;;;3.17;81.85;101238.14;102881;1318;140409;-69
2021/12/17 08:35:31;;;;;;;27.60;7.70;;;;;;;3.18;81.78;101241.77;103044;1318;109086;-69
2021/12/17 08:38:08;;;;;;;23.80;6.50;;;;;;;3.19;81.87;101242.80;103079;1324;140221;-70
2021/12/17 08:40:43;;;;;;;19.20;6.50;;;;;;;3.17;81.80;101247.26;103799;1319;96143;-70
2021/12/17 08:43:15;;;;;;;22.80;7.00;;;;;;;3.18;81.85;101255.86;103228;1317;112095;-70
2021/12/17 08:45:51;;;;;;;22.20;6.70;;;;;;;3.22;82.04;101250.05;102962;1317;138234;-70
2021/12/17 08:48:58;;;;;;;23.10;7.50;;;;;;;3.25;81.86;101253.22;102807;1318;108902;-70
2021/12/17 08:51:49;;;;;;;26.00;8.10;;;;;;;3.26;81.98;101252.54;102847;1317;138193;-69
2021/12/17 08:54:22;;;;;;;23.40;7.80;;;;;;;3.25;81.92;101254.60;103130;1318;97866;-69
2021/12/17 08:56:53;;;;;;;24.40;7.60;;;;;;;3.24;81.89;101254.75;102832;1318;138762;-68
2021/12/17 08:59:29;;;;;;;20.70;7.30;;;;;;;3.27;82.04;101249.13;102989;1318;109163;-68
2021/12/17 09:02:17;;;;;;;21.80;7.50;;;;;;;3.28;81.69;101238.65;102944;1319;139101;-71
2021/12/17 09:04:58;;;;;;;22.30;7.70;;;;;;;3.28;81.66;101236.95;102814;1318;97885;-71
2021/12/17 09:07:32;;;;;;;22.00;7.60;;;;;;;3.30;81.62;101236.45;102957;1318;97838;-71
2021/12/17 09:10:27;;;;;;;20.70;7.80;;;;;;;3.34;81.85;101228.58;102833;1319;112729;-71
2021/12/17 09:13:00;;;;;;;19.50;7.50;;;;;;;3.38;81.85;101219.52;102885;1318;108924;-71
2021/12/17 09:15:32;;;;;;;24.40;8.10;;;;;;;3.41;81.65;101216.80;102617;1318;137920;-71
2021/12/17 09:18:17;;;;;;;19.50;7.50;;;;;;;3.43;81.63;101222.52;102843;1318;97923;-71
2021/12/17 09:20:54;;;;;;;18.90;6.90;;;;;;;3.44;81.53;101219.27;102744;1318;138580;-71
2021/12/17 09:23:34;;;;;;;19.90;6.80;;;;;;;3.46;81.54;101221.52;102692;1318;112627;-71
2021/12/17 09:26:06;;;;;;;23.80;7.60;;;;;;;3.48;81.26;101218.29;102808;1318;109081;-70
2021/12/17 09:28:38;;;;;;;19.30;7.20;;;;;;;3.52;81.44;101213.33;103165;1322;138513;-71
2021/12/17 09:31:12;;;;;;;19.90;7.10;;;;;;;3.54;81.32;101213.70;103809;1317;97907;-71
2021/12/17 09:33:46;;;;;;;19.00;7.10;;;;;;;3.53;81.19;101208.35;102989;1317;137713;-69
2021/12/17 09:36:19;;;;;;;19.50;7.50;;;;;;;3.55;81.11;101211.47;104342;1315;112580;-70
2021/12/17 09:38:52;;;;;;;23.40;8.20;;;;;;;3.56;81.13;101202.36;103715;1319;138089;-70
2021/12/17 09:41:27;;;;;;;25.40;8.80;;;;;;;3.58;80.96;101208.40;104403;1318;108068;-70
2021/12/17 09:43:59;;;;;;;20.60;7.20;;;;;;;3.59;81.26;101210.50;104042;1317;97661;-70
2021/12/17 09:46:31;;;;;;;17.60;7.00;;;;;;;3.61;81.06;101207.79;104175;1318;138709;-70
2021/12/17 09:49:04;;;;;;;17.70;6.80;;;;;;;3.67;80.87;101210.92;103337;1317;112705;-69
2021/12/17 09:51:36;;;;;;;21.00;7.80;;;;;;;3.71;80.95;101207.19;103653;1319;139674;-70
2021/12/17 09:54:08;;;;;;;16.80;6.70;;;;;;;3.76;80.88;101212.56;103227;1318;109808;-69
2021/12/17 09:56:40;;;;;;;23.40;7.30;;;;;;;3.79;80.91;101212.62;102898;1319;138453;-69
2021/12/17 09:59:13;;;;;;;21.40;7.10;;;;;;;3.81;80.86;101217.80;103421;1322;97892;-69
2021/12/17 10:01:46;;;;;;;25.70;7.50;;;;;;;3.84;80.73;101212.50;104318;1318;111736;-69
2021/12/17 10:04:21;;;;;;;22.00;7.00;;;;;;;3.86;80.57;101202.36;104200;1318;138163;-69
2021/12/17 10:07:13;;;;;;;15.30;6.70;;;;;;;3.88;80.64;101197.39;104383;1317;108739;-71
2021/12/17 10:09:50;;;;;;;20.40;6.90;;;;;;;3.96;80.42;101193.87;103290;1318;138943;-70
2021/12/17 10:12:27;;;;;;;18.00;6.70;;;;;;;4.05;80.20;101194.64;104278;1317;95898;-70
2021/12/17 10:15:03;;;;;;;;;;;;;;;4.11;80.12;101197.45;104134;1318;138735;-70
2021/12/17 10:17:36;;;;;;;19.40;7.50;;;;;;;4.16;79.97;101198.55;103351;1318;109142;-69
2021/12/17 10:20:09;;;;;;;20.20;6.40;;;;;;;4.23;79.85;101197.73;103378;1318;109761;-70
2021/12/17 10:22:46;;;;;;;20.10;6.60;;;;;;;4.29;79.75;101201.23;104188;1318;138697;-71
2021/12/17 10:25:20;;;;;;;17.30;6.10;;;;;;;4.37;79.69;101195.80;103109;1318;98372;-70
2021/12/17 10:27:59;;;;;;;13.70;5.40;;;;;;;4.43;79.50;101194.45;103422;1320;137955;-70
2021/12/17 10:30:33;;;;;;;18.00;5.90;;;;;;;4.51;79.29;101191.95;103768;1318;109001;-70
2021/12/17 10:33:09;;;;;;;16.10;5.10;;;;;;;4.59;79.03;101190.96;102587;1319;138979;-70
2021/12/17 10:35:45;;;;;;;18.70;5.50;;;;;;;4.66;78.63;101187.05;102998;1318;97969;-72
2021/12/17 10:38:20;;;;;;;17.80;6.00;;;;;;;4.71;78.49;101181.59;102869;1318;138916;-69
2021/12/17 10:40:59;;;;;;;20.10;6.40;;;;;;;4.83;78.57;101177.86;104318;1316;112621;-69
2021/12/17 10:43:35;;;;;;;16.70;5.80;;;;;;;4.91;77.84;101183.44;104132;1318;138369;-70
2021/12/17 10:46:20;;;;;;;19.80;6.20;;;;;;;4.92;77.62;101179.47;104260;1318;108914;-70
2021/12/17 10:49:17;;;;;;;18.30;5.90;;;;;;;4.95;77.98;101176.39;103380;1306;97716;-92
2021/12/17 10:52:03;;;;;;;15.90;6.00;;;;;;;4.99;77.56;101174.49;103253;1317;137642;-94
2021/12/17 10:54:37;;;;;;;18.70;5.70;;;;;;;4.94;77.20;101167.77;99270;1318;5319770;-95
2021/12/17 10:57:11;;;;;;;12.70;4.80;;;;;;;4.93;77.15;101172.92;103299;1319;107945;-94
2021/12/17 11:00:05;;;;;;;15.90;5.10;;;;;;;4.97;77.48;101166.73;103267;1318;96763;-93
2021/12/17 11:02:48;;;;;;;15.90;5.10;;;;;;;5.03;77.22;101164.88;103325;1317;98025;-95
2021/12/17 11:05:35;;;;;;;19.10;5.30;;;;;;;5.10;77.01;101163.02;103076;1318;138324;-93
2021/12/17 11:08:24;;;;;;;22.90;5.90;;;;;;;5.20;76.90;101165.13;102919;1309;109321;-71
2021/12/17 11:11:00;;;;;;;17.50;5.60;;;;;;;5.31;76.61;101161.55;102777;1318;139790;-71
2021/12/17 11:13:33;;;;;;;13.30;5.10;;;;;;;5.39;76.02;101156.77;103902;1317;97885;-71
2021/12/17 11:16:06;;;;;;;18.20;5.50;;;;;;;5.37;75.92;101156.06;103550;1319;98525;-71
2021/12/17 11:18:38;;;;;;;20.40;6.00;;;;;;;5.53;76.18;101148.36;104207;1317;138096;-71
2021/12/17 11:21:18;;;;;;;13.20;5.00;;;;;;;5.74;76.40;101143.56;104242;1320;107796;-71
2021/12/17 11:23:51;;;;;;;16.60;4.70;;;;;;;6.04;76.37;101142.27;102401;1318;137987;-72
2021/12/17 11:26:24;;;;;;;13.90;4.40;;;;;;;6.32;75.57;101145.54;102695;1318;97884;-71
2021/12/17 11:29:02;;;;;;;16.00;4.90;;;;;;;6.59;75.33;101145.52;102765;1318;139055;-70
2021/12/17 11:31:34;;;;;;;13.50;4.90;;;;;;;6.91;75.04;101146.66;103282;1316;111547;-72
2021/12/17 11:34:07;;;;;;;9.50;4.00;;;;;;;7.09;74.02;101142.45;103599;1318;109274;-71
2021/12/17 11:36:40;;;;;;;15.60;5.20;;;;;;;7.12;73.43;101149.36;102449;1321;138359;-70
2021/12/17 11:39:22;;;;;;;16.30;4.60;;;;;;;7.12;73.37;101151.60;102846;1319;97864;-72
2021/12/17 11:42:05;;;;;;;11.50;4.50;;;;;;;7.15;72.86;101147.96;102719;1322;137949;-72
2021/12/17 11:44:42;;;;;;;12.10;4.30;;;;;;;7.05;72.71;101149.91;104136;1321;111433;-70
2021/12/17 11:47:15;;;;;;;10.40;4.20;;;;;;;6.90;72.24;101153.41;102716;1318;141417;-69
2021/12/17 11:49:50;;;;;;;15.60;4.30;;;;;;;6.70;71.77;101151.02;102644;1318;108224;-71
2021/12/17 11:52:44;;;;;;;11.70;4.60;;;;;;;6.48;72.00;101150.71;102792;1318;98042;-72
2021/12/17 11:55:37;;;;;;;12.60;4.10;;;;;;;6.25;72.07;101157.12;102732;1318;137535;-71
2021/12/17 11:58:14;;;;;;;15.10;4.40;;;;;;;6.05;72.35;101157.80;104014;1318;112080;-70
2021/12/17 12:00:53;;;;;;;11.70;4.20;;;;;;;5.85;72.17;101155.16;104041;1318;138391;-69
2021/12/17 12:03:26;;;;;;;13.00;4.10;;;;;;;5.70;72.82;101165.48;103860;1317;138982;-71
2021/12/17 12:06:01;;;;;;;10.60;3.60;;;;;;;5.59;73.04;101164.42;103371;1322;98415;-70
2021/12/17 12:08:46;;;;;;;13.90;4.10;;;;;;;5.52;73.01;101148.52;102901;1318;97847;-69
2021/12/17 12:11:21;;;;;;;13.00;4.00;;;;;;;5.43;73.61;101152.81;103647;1324;138612;-70
2021/12/17 12:13:54;;;;;;;15.00;5.60;;;;;;;5.37;73.50;101151.75;104277;1318;110057;-70
2021/12/17 12:16:30;;;;;;;13.40;4.90;;;;;;;5.29;73.55;101151.21;104082;1318;138381;-71
2021/12/17 12:19:13;;;;;;;13.70;4.30;;;;;;;5.22;73.70;101156.36;103453;1318;98463;-70
2021/12/17 12:22:08;;;;;;;13.50;4.70;;;;;;;5.14;73.79;101155.62;102871;1318;139632;-70
2021/12/17 12:24:40;;;;;;;14.50;4.20;;;;;;;5.06;74.08;101152.14;102952;1324;112644;-70
2021/12/17 12:27:30;;;;;;;10.20;4.00;;;;;;;4.99;74.17;101140.20;102763;1320;138165;-70
2021/12/17 12:30:03;;;;;;;10.10;3.50;;;;;;;4.90;73.97;101140.86;102817;1318;108980;-71
2021/12/17 12:32:35;;;;;;;9.70;3.30;;;;;;;4.83;74.09;101135.98;104055;1322;96873;-71
2021/12/17 12:35:10;;;;;;;12.80;3.80;;;;;;;4.79;74.05;101129.58;104074;1321;139823;-71
2021/12/17 12:37:45;;;;;;;13.10;3.70;;;;;;;4.78;74.63;101133.73;103913;1320;112510;-71
2021/12/17 12:40:21;;;;;;;14.10;3.70;;;;;;;4.79;74.59;101130.80;102824;1321;138158;-70
2021/12/17 12:42:56;;;;;;;9.60;3.70;;;;;;;4.79;74.41;101126.48;102910;1327;106961;-70
2021/12/17 12:45:32;;;;;;;10.70;4.00;;;;;;;4.74;74.16;101124.23;104121;1320;138019;-70
2021/12/17 12:48:05;;;;;;;12.10;4.50;;;;;;;4.71;74.64;101135.06;104253;1319;96097;-70
2021/12/17 12:50:37;;;;;;;13.50;4.00;;;;;;;4.66;74.36;101131.23;103409;1321;111227;-70
2021/12/17 12:53:11;;;;;;;14.30;3.70;;;;;;;4.60;74.56;101132.23;102742;1320;137954;-70
2021/12/17 12:55:48;;;;;;;8.40;3.30;;;;;;;4.55;74.53;101131.70;104280;1321;108843;-70
2021/12/17 12:58:28;;;;;;;8.30;3.60;;;;;;;4.52;74.71;101138.91;103729;1318;139899;-70
2021/12/17 13:01:02;;;;;;;12.00;3.60;;;;;;;4.50;74.60;101135.80;103356;1324;96099;-69
2021/12/17 13:03:37;;;;;;;10.70;3.30;;;;;;;4.52;74.64;101133.40;104145;1321;138684;-69
2021/12/17 13:06:16;;;;;;;10.30;3.70;;;;;;;4.51;74.62;101146.31;103992;1322;109028;-70
2021/12/17 13:08:56;;;;;;;10.40;3.50;;;;;;;4.50;74.68;101146.48;103129;1316;108022;-70
2021/12/17 13:11:29;;;;;;;12.00;3.60;;;;;;;4.48;74.74;101145.75;103181;1322;138214;-71
2021/12/17 13:14:09;;;;;;;12.30;3.90;;;;;;;4.49;74.99;101144.39;104231;1320;96097;-70
2021/12/17 13:17:05;;;;;;;9.50;3.60;;;;;;;4.46;74.70;101150.05;104062;1320;138478;-70
2021/12/17 13:22:42;;;;;;;9.80;3.60;;;;;;;4.39;74.94;101159.30;103390;1320;139137;-70
2021/12/17 13:25:25;;;;;;;10.40;4.00;;;;;;;4.36;74.98;101162.73;104060;1321;96272;-70
2021/12/17 13:28:03;;;;;;;10.50;3.80;;;;;;;4.35;74.98;101152.56;104137;1321;138391;-70
2021/12/17 13:30:35;;;;;;;15.90;4.50;;;;;;;4.36;75.00;101154.29;104262;1321;112411;-70
2021/12/17 13:33:07;;;;;;;9.10;3.70;;;;;;;4.37;74.79;101158.60;104019;1321;139251;-71
2021/12/17 13:35:40;;;;;;;15.40;4.50;;;;;;;4.35;74.94;101161.86;103761;1320;108994;-71
2021/12/17 13:38:13;;;;;;;13.40;4.30;;;;;;;4.35;75.04;101160.14;104197;1321;96187;-71
2021/12/17 13:40:53;;;;;;;10.50;4.00;;;;;;;4.36;74.92;101156.36;104165;1321;137660;-71
2021/12/17 13:43:30;;;;;;;10.80;4.70;;;;;;;4.35;74.97;101165.48;103195;1321;112426;-70
2021/12/17 13:46:05;;;;;;;13.70;4.40;;;;;;;4.34;74.95;101173.39;102789;1318;138032;-70
2021/12/17 13:48:37;;;;;;;11.00;4.50;;;;;;;4.32;74.79;101159.08;104237;1321;109016;-71
2021/12/17 13:51:15;;;;;;;10.50;4.30;;;;;;;4.27;75.07;101154.04;103083;1319;138817;-70
2021/12/17 13:53:49;;;;;;;10.10;3.90;;;;;;;4.22;75.08;101150.90;104238;1321;95915;-70
2021/12/17 13:56:41;;;;;;;16.10;5.40;;;;;;;4.21;75.38;101158.98;103168;1321;111742;-71
2021/12/17 13:59:14;;;;;;;12.90;4.10;;;;;;;4.23;75.27;101160.03;104153;1319;139026;-71
2021/12/17 14:01:46;;;;;;;11.70;4.60;;;;;;;4.26;75.24;101154.03;104243;1320;107942;-70
2021/12/17 14:04:18;;;;;;;13.80;4.50;;;;;;;4.27;75.17;101146.11;103918;1318;139004;-71
2021/12/17 14:06:53;;;;;;;12.50;4.50;;;;;;;4.23;75.11;101143.50;104226;1316;96034;-71
2021/12/17 14:09:25;;;;;;;13.70;4.80;;;;;;;4.20;75.38;101148.14;104096;1318;138455;-71
2021/12/17 14:12:07;;;;;;;17.40;4.70;;;;;;;4.17;75.47;101141.74;104196;1320;108790;-71
2021/12/17 14:15:02;;;;;;;16.80;4.80;;;;;;;4.13;75.43;101162.36;103721;1320;108964;-71
2021/12/17 14:17:39;;;;;;;10.90;4.80;;;;;;;4.11;75.71;101150.80;103719;1321;138975;-71
2021/12/17 14:20:14;;;;;;;12.60;4.30;;;;;;;4.12;75.56;101153.05;104208;1321;96002;-70
2021/12/17 14:22:48;;;;;;;15.00;4.50;;;;;;;4.15;75.60;101146.38;104135;1318;138383;-70